Time;durP1;ratioP1;P1;durP2;ratioP2;P2;SDS_P1;SDS_P2;PMS_P1;PMS_P2;Temp;Humidity;BMP_temperature;BMP_pressure;BME280_temperature;BME280_humidity;BME280_pressure;Samples;Min_cycle;Max_cycle;Signal;HPM_P1;HPM_P2
2022/05/29 00:01:14;;;;;;;;;;;;;;;29.33;20.59;101519.75;4434763;32;20004;-69
2022/05/29 00:03:40;;;;;;;;;;;;;;;29.36;20.48;101519.41;4433191;32;20623;-70
2022/05/29 00:06:06;;;;;;;;;;;;;;;29.36;20.54;101521.56;4435690;32;19997;-70
2022/05/29 00:08:33;;;;;;;;;;;;;;;29.22;20.63;101514.91;4434444;32;20395;-70
2022/05/29 00:11:00;;;;;;;;;;;;;;;29.21;20.67;101515.47;4435481;32;19957;-70
2022/05/29 00:13:27;;;;;;;;;;;;;;;29.34;20.51;101509.72;4434884;32;20398;-70
2022/05/29 00:15:53;;;;;;;;;;;;;;;29.24;20.58;101512.25;4435580;32;19953;-70
2022/05/29 00:18:19;;;;;;;;;;;;;;;29.28;20.52;101512.72;4432593;32;20087;-69
2022/05/29 00:20:48;;;;;;;;;;;;;;;29.34;20.40;101504.72;4434087;32;20000;-69
2022/05/29 00:23:13;;;;;;;;;;;;;;;29.40;20.48;101495.91;4433273;32;19972;-70
2022/05/29 00:25:48;;;;;;;;;;;;;;;29.50;20.35;101497.84;4433871;32;19961;-70
2022/05/29 00:28:13;;;;;;;;;;;;;;;29.39;20.41;101500.16;4435122;32;19949;-70
2022/05/29 00:30:40;;;;;;;;;;;;;;;29.09;20.78;101493.78;4435307;32;19957;-69
2022/05/29 00:33:06;;;;;;;;;;;;;;;28.58;21.22;101495.78;4434601;32;20364;-70
2022/05/29 00:35:32;;;;;;;;;;;;;;;28.98;20.77;101494.69;4434097;32;19996;-70
2022/05/29 00:37:59;;;;;;;;;;;;;;;29.24;20.62;101491.97;4434261;32;20224;-70
2022/05/29 00:40:32;;;;;;;;;;;;;;;29.25;20.69;101496.41;4435463;32;20037;-70
2022/05/29 00:42:58;;;;;;;;;;;;;;;29.18;20.71;101493.38;4432483;32;19984;-70
2022/05/29 00:45:24;;;;;;;;;;;;;;;29.05;20.96;101499.13;4434990;32;19953;-70
2022/05/29 00:47:50;;;;;;;;;;;;;;;29.19;20.77;101498.63;4433685;32;19997;-69
2022/05/29 00:50:18;;;;;;;;;;;;;;;29.28;20.72;101495.31;4435747;32;20418;-69
2022/05/29 00:52:44;;;;;;;;;;;;;;;29.19;20.83;101494.94;4428939;32;19949;-69
2022/05/29 00:55:12;;;;;;;;;;;;;;;29.01;21.02;101500.19;4433725;32;19964;-69
2022/05/29 00:57:41;;;;;;;;;;;;;;;29.22;20.73;101491.72;4432466;32;20009;-69
2022/05/29 01:00:09;;;;;;;;;;;;;;;28.72;21.34;101497.47;4425880;32;19957;-69
2022/05/29 01:02:34;;;;;;;;;;;;;;;28.10;21.99;101502.41;4421857;32;20359;-69
2022/05/29 01:05:02;;;;;;;;;;;;;;;28.62;21.51;101491.25;4423936;32;19991;-69
2022/05/29 01:07:29;;;;;;;;;;;;;;;28.63;21.47;101494.94;4421436;32;20007;-69
2022/05/29 01:09:55;;;;;;;;;;;;;;;28.63;21.47;101492.81;4424815;32;19992;-69
2022/05/29 01:12:31;;;;;;;;;;;;;;;28.79;21.39;101480.22;4419873;32;21083;-69
2022/05/29 01:15:16;;;;;;;;;;;;;;;28.71;21.49;101476.38;4423003;32;20009;-70
2022/05/29 01:20:36;;;;;;;;;;;;;;;28.83;21.52;101477.78;3952790;32;15722624;-69
2022/05/29 01:28:48;;;;;;;;;;;;;;;28.58;21.95;101473.41;3953084;32;15724658;-68
2022/05/29 01:31:21;;;;;;;;;;;;;;;28.58;21.95;101473.41;4431031;32;20278;-69
2022/05/29 01:33:52;;;;;;;;;;;;;;;28.19;22.14;101463.63;4430859;32;19962;-69
2022/05/29 01:36:29;;;;;;;;;;;;;;;28.23;22.11;101467.78;4429345;32;19969;-69
2022/05/29 01:38:58;;;;;;;;;;;;;;;27.90;22.59;101465.28;4428716;32;19946;-69
2022/05/29 01:41:30;;;;;;;;;;;;;;;27.92;22.47;101467.63;4426743;32;19976;-69
2022/05/29 01:44:02;;;;;;;;;;;;;;;27.80;22.77;101460.34;4427786;32;20009;-69
2022/05/29 01:46:31;;;;;;;;;;;;;;;27.42;23.09;101455.75;4427315;32;20326;-69
2022/05/29 01:54:19;;;;;;;;;;;;;;;28.43;22.21;101447.00;3952707;32;15726404;-69
2022/05/29 01:56:47;;;;;;;;;;;;;;;28.43;22.21;101447.00;4427994;32;19961;-69
2022/05/29 01:59:33;;;;;;;;;;;;;;;27.93;22.70;101441.03;4429179;32;20543;-69
2022/05/29 02:02:02;;;;;;;;;;;;;;;27.89;22.66;101442.66;4431549;32;20339;-69
2022/05/29 02:04:29;;;;;;;;;;;;;;;28.16;22.45;101444.47;4426523;32;19958;-69
2022/05/29 02:09:46;;;;;;;;;;;;;;;28.08;22.55;101443.50;4430812;32;19961;-69
2022/05/29 02:12:15;;;;;;;;;;;;;;;28.10;22.45;101443.75;4431952;32;19956;-69
2022/05/29 02:14:42;;;;;;;;;;;;;;;28.12;22.62;101441.88;4423638;32;20414;-69
2022/05/29 02:17:11;;;;;;;;;;;;;;;28.11;22.54;101437.41;4428705;32;19997;-69
2022/05/29 02:19:40;;;;;;;;;;;;;;;28.34;22.31;101438.69;4428113;32;20034;-69
2022/05/29 02:22:09;;;;;;;;;;;;;;;28.39;22.23;101437.03;4430506;32;19957;-69
2022/05/29 02:24:37;;;;;;;;;;;;;;;28.29;22.14;101430.84;4426391;32;20385;-70
2022/05/29 02:27:10;;;;;;;;;;;;;;;28.25;22.17;101435.38;4428007;32;19969;-70
2022/05/29 02:29:36;;;;;;;;;;;;;;;28.09;22.49;101428.47;4431388;32;20066;-69
2022/05/29 02:34:52;;;;;;;;;;;;;;;28.14;22.33;101423.97;3973669;31;15718793;-70
2022/05/29 02:39:59;;;;;;;;;;;;;;;28.31;22.37;101421.62;3953450;32;15724656;-69
2022/05/29 02:42:43;;;;;;;;;;;;;;;28.31;22.37;101421.62;4426924;32;19995;-69
2022/05/29 02:45:29;;;;;;;;;;;;;;;27.75;22.77;101412.81;4428376;32;19972;-69
2022/05/29 02:48:01;;;;;;;;;;;;;;;28.01;22.60;101420.97;4428954;32;19957;-69
2022/05/29 02:53:08;;;;;;;;;;;;;;;28.26;22.43;101422.50;3966144;31;15720090;-69
2022/05/29 02:55:34;;;;;;;;;;;;;;;28.26;22.43;101422.50;4437903;32;19986;-69
2022/05/29 02:58:01;;;;;;;;;;;;;;;27.92;22.73;101407.63;4439636;32;20101;-69
2022/05/29 03:00:30;;;;;;;;;;;;;;;27.84;22.83;101405.88;4438139;32;20001;-69
2022/05/29 03:03:15;;;;;;;;;;;;;;;27.89;22.79;101402.94;4436718;32;19972;-69
2022/05/29 03:05:55;;;;;;;;;;;;;;;27.88;22.83;101407.16;4437247;32;20031;-69
2022/05/29 03:08:41;;;;;;;;;;;;;;;27.94;22.78;101407.09;4439160;32;19972;-70
2022/05/29 03:11:10;;;;;;;;;;;;;;;28.01;22.64;101397.81;4438665;32;19968;-69
2022/05/29 03:16:32;;;;;;;;;;;;;;;28.12;22.38;101391.56;3957202;32;15723047;-69
2022/05/29 03:19:17;;;;;;;;;;;;;;;28.13;22.39;101387.66;4433775;32;20352;-70
2022/05/29 03:21:49;;;;;;;;;;;;;;;27.72;22.81;101384.19;4435771;32;20009;-70
2022/05/29 03:24:24;;;;;;;;;;;;;;;27.37;23.10;101381.41;4436073;32;19997;-70
2022/05/29 03:27:02;;;;;;;;;;;;;;;27.72;22.75;101382.06;4437186;32;20244;-70
2022/05/29 03:32:05;;;;;;;;;;;;;;;28.30;22.68;101377.44;3951568;32;15723401;-69
2022/05/29 03:34:30;;;;;;;;;;;;;;;28.30;22.68;101377.44;4428501;32;20034;-69
2022/05/29 03:36:56;;;;;;;;;;;;;;;28.12;22.67;101374.50;4426131;32;20009;-69
2022/05/29 03:39:22;;;;;;;;;;;;;;;28.14;22.59;101369.75;4429572;32;19971;-69
2022/05/29 03:41:49;;;;;;;;;;;;;;;27.75;22.93;101363.63;4426025;32;20030;-69
2022/05/29 03:44:15;;;;;;;;;;;;;;;27.86;22.76;101372.22;4428898;32;20078;-70
2022/05/29 03:46:42;;;;;;;;;;;;;;;27.92;22.82;101377.94;4428129;32;20408;-69
2022/05/29 03:49:09;;;;;;;;;;;;;;;27.73;23.02;101372.06;4429060;32;20033;-69
2022/05/29 03:51:35;;;;;;;;;;;;;;;26.88;24.03;101371.84;4428569;32;19965;-70
2022/05/29 03:54:01;;;;;;;;;;;;;;;27.72;23.22;101379.19;4429425;32;20228;-69
2022/05/29 03:56:28;;;;;;;;;;;;;;;27.58;23.08;101365.16;4429318;32;20400;-69
2022/05/29 03:58:53;;;;;;;;;;;;;;;27.67;23.12;101367.69;4428989;32;20462;-69
2022/05/29 04:01:19;;;;;;;;;;;;;;;27.45;23.20;101373.72;4426570;32;19971;-69
2022/05/29 04:03:44;;;;;;;;;;;;;;;27.73;22.89;101369.16;4427271;32;19953;-69
2022/05/29 04:06:10;;;;;;;;;;;;;;;27.64;23.29;101360.88;4413043;32;19990;-69
2022/05/29 04:14:06;;;;;;;;;;;;;;;27.81;22.95;101364.34;4412278;32;20008;-69
2022/05/29 04:16:32;;;;;;;;;;;;;;;27.03;23.76;101349.13;4426275;32;19965;-69
2022/05/29 04:18:58;;;;;;;;;;;;;;;27.68;23.14;101360.56;4428411;32;20425;-69
2022/05/29 04:21:23;;;;;;;;;;;;;;;27.58;23.09;101362.28;4427311;32;19953;-69
2022/05/29 04:23:49;;;;;;;;;;;;;;;27.74;23.06;101358.41;4424998;32;19961;-69
2022/05/29 04:26:14;;;;;;;;;;;;;;;27.92;22.96;101358.44;4429467;32;21957;-69
2022/05/29 04:28:40;;;;;;;;;;;;;;;27.85;22.91;101350.34;4427309;32;20346;-69
2022/05/29 04:31:06;;;;;;;;;;;;;;;28.10;22.65;101351.13;4427205;32;19976;-69
2022/05/29 04:33:32;;;;;;;;;;;;;;;28.12;22.59;101339.78;4426150;32;20009;-69
2022/05/29 04:35:57;;;;;;;;;;;;;;;28.00;22.49;101342.03;4428915;32;20256;-69
2022/05/29 04:38:23;;;;;;;;;;;;;;;28.04;22.55;101341.75;4428684;32;20619;-69
2022/05/29 04:40:49;;;;;;;;;;;;;;;28.22;22.43;101335.94;4427346;32;19968;-69
2022/05/29 04:43:15;;;;;;;;;;;;;;;28.42;22.12;101341.19;4420189;32;19957;-69
2022/05/29 04:45:43;;;;;;;;;;;;;;;28.36;22.26;101345.50;4416432;32;20385;-69
2022/05/29 04:48:09;;;;;;;;;;;;;;;28.28;22.13;101341.66;4417025;32;20447;-69
2022/05/29 04:50:36;;;;;;;;;;;;;;;27.44;23.07;101335.34;4416898;32;19969;-69
2022/05/29 04:53:01;;;;;;;;;;;;;;;28.04;22.70;101336.72;4417234;32;19966;-69
2022/05/29 04:55:27;;;;;;;;;;;;;;;28.23;22.26;101342.53;4417888;32;19949;-69
2022/05/29 04:57:52;;;;;;;;;;;;;;;28.25;22.43;101334.84;4418140;32;19980;-69
2022/05/29 05:00:18;;;;;;;;;;;;;;;28.00;22.55;101330.47;4417936;32;20044;-69
2022/05/29 05:02:43;;;;;;;;;;;;;;;27.90;22.51;101332.19;4416781;32;20389;-69
2022/05/29 05:05:10;;;;;;;;;;;;;;;28.53;22.07;101331.59;4415909;32;19961;-69
2022/05/29 05:07:35;;;;;;;;;;;;;;;28.55;22.13;101323.91;4416484;32;20015;-69
2022/05/29 05:10:02;;;;;;;;;;;;;;;28.68;21.97;101326.84;4416809;32;19957;-69
2022/05/29 05:12:27;;;;;;;;;;;;;;;28.90;21.65;101332.25;4417971;32;20016;-69
2022/05/29 05:14:53;;;;;;;;;;;;;;;28.22;22.51;101330.16;4416059;32;19990;-69
2022/05/29 05:17:21;;;;;;;;;;;;;;;28.59;21.74;101335.19;4415118;32;20347;-69
2022/05/29 05:19:46;;;;;;;;;;;;;;;28.77;21.66;101338.03;4416989;32;19972;-69
2022/05/29 05:22:12;;;;;;;;;;;;;;;28.72;21.61;101341.78;4418853;32;20001;-69
2022/05/29 05:24:38;;;;;;;;;;;;;;;28.41;22.10;101333.81;4415861;32;20048;-69
2022/05/29 05:27:04;;;;;;;;;;;;;;;28.56;21.92;101342.84;4401341;32;20457;-69
2022/05/29 05:29:30;;;;;;;;;;;;;;;28.64;21.78;101346.66;4416045;32;19973;-69
2022/05/29 05:31:55;;;;;;;;;;;;;;;28.00;22.52;101339.16;4414352;32;21099;-69
2022/05/29 05:34:21;;;;;;;;;;;;;;;28.57;22.18;101344.41;4405445;32;20004;-69
2022/05/29 05:36:47;;;;;;;;;;;;;;;28.90;21.83;101340.97;4421687;32;20312;-69
2022/05/29 05:39:13;;;;;;;;;;;;;;;29.11;21.55;101340.38;4423011;32;20734;-69
2022/05/29 05:41:38;;;;;;;;;;;;;;;29.02;21.51;101344.44;4415014;32;20268;-69
2022/05/29 05:44:04;;;;;;;;;;;;;;;28.60;22.01;101339.63;4418016;32;20056;-69
2022/05/29 05:46:29;;;;;;;;;;;;;;;28.11;22.45;101339.00;4414349;32;21357;-69
2022/05/29 05:48:55;;;;;;;;;;;;;;;28.76;21.93;101342.25;4414485;32;19973;-69
2022/05/29 05:51:20;;;;;;;;;;;;;;;28.58;22.03;101340.19;4417088;32;19968;-69
2022/05/29 05:53:46;;;;;;;;;;;;;;;27.33;23.26;101332.56;4417566;32;19987;-69
2022/05/29 05:56:13;;;;;;;;;;;;;;;28.44;22.23;101329.81;4420924;32;20002;-69
2022/05/29 05:58:38;;;;;;;;;;;;;;;28.44;22.13;101332.72;4414175;32;20011;-69
2022/05/29 06:01:05;;;;;;;;;;;;;;;29.07;21.42;101339.91;4414683;32;19965;-69
2022/05/29 06:03:31;;;;;;;;;;;;;;;28.85;21.62;101329.47;4417347;32;19956;-69
2022/05/29 06:05:58;;;;;;;;;;;;;;;29.01;21.69;101326.28;4416050;32;20094;-69
2022/05/29 06:08:23;;;;;;;;;;;;;;;29.16;21.41;101336.59;4420636;32;20450;-69
2022/05/29 06:10:49;;;;;;;;;;;;;;;29.17;21.39;101326.56;4414235;32;19991;-69
2022/05/29 06:13:15;;;;;;;;;;;;;;;29.08;21.41;101329.91;4417897;32;19961;-69
2022/05/29 06:15:44;;;;;;;;;;;;;;;29.29;21.39;101322.13;4414826;32;19998;-69
2022/05/29 06:18:10;;;;;;;;;;;;;;;28.34;22.29;101317.09;4417091;32;20302;-69
2022/05/29 06:20:35;;;;;;;;;;;;;;;27.91;22.58;101321.37;4418211;32;19954;-69
2022/05/29 06:23:01;;;;;;;;;;;;;;;28.61;22.09;101318.00;4416679;32;21097;-69
2022/05/29 06:25:27;;;;;;;;;;;;;;;28.54;21.82;101321.56;4417791;32;20013;-69
2022/05/29 06:27:52;;;;;;;;;;;;;;;28.69;21.82;101322.59;4415638;32;20372;-69
2022/05/29 06:30:18;;;;;;;;;;;;;;;28.81;21.73;101321.09;4417531;32;20000;-69
2022/05/29 06:32:43;;;;;;;;;;;;;;;28.96;21.42;101323.50;4416656;32;20004;-69
2022/05/29 06:35:11;;;;;;;;;;;;;;;28.58;21.81;101324.91;4417910;32;19958;-69
2022/05/29 06:37:36;;;;;;;;;;;;;;;28.78;21.65;101324.31;4419876;32;20001;-69
2022/05/29 06:40:02;;;;;;;;;;;;;;;28.50;21.76;101321.87;4416346;32;19994;-69
2022/05/29 06:42:28;;;;;;;;;;;;;;;28.90;21.32;101317.78;4415622;32;20032;-69
2022/05/29 06:44:53;;;;;;;;;;;;;;;28.65;21.57;101312.69;4416761;32;19985;-69
2022/05/29 06:47:19;;;;;;;;;;;;;;;29.14;21.23;101324.78;4414823;32;20007;-69
2022/05/29 06:49:46;;;;;;;;;;;;;;;28.37;21.90;101315.19;4397604;32;20012;-69
2022/05/29 06:52:12;;;;;;;;;;;;;;;28.56;21.72;101319.66;4414828;32;19994;-69
2022/05/29 06:54:38;;;;;;;;;;;;;;;28.64;21.67;101326.41;4414023;32;20008;-69
2022/05/29 06:57:06;;;;;;;;;;;;;;;28.86;21.27;101325.22;4419355;32;20298;-69
2022/05/29 07:06:58;;;;;;;;;;;;;;;29.32;20.89;101321.78;4414650;32;19991;-69
2022/05/29 07:07:52;;;;;;;;;;;;;;;29.19;19.79;101323.88;4415143;32;19993;-70
2022/05/29 07:10:18;;;;;;;;;;;;;;;28.91;20.08;101335.97;4417945;32;19999;-70
2022/05/29 07:12:44;;;;;;;;;;;;;;;28.83;20.25;101327.12;4418662;32;20001;-69
2022/05/29 07:15:10;;;;;;;;;;;;;;;29.00;20.07;101318.91;4416188;32;20322;-69
2022/05/29 07:17:35;;;;;;;;;;;;;;;29.32;19.65;101327.59;4417361;32;20320;-69
2022/05/29 07:20:02;;;;;;;;;;;;;;;29.95;19.08;101333.19;4415846;32;19984;-69
2022/05/29 07:22:30;;;;;;;;;;;;;;;28.49;20.13;101320.31;4414316;32;20003;-69
2022/05/29 07:24:56;;;;;;;;;;;;;;;29.61;18.73;101319.91;4414775;32;20269;-70
2022/05/29 07:27:22;;;;;;;;;;;;;;;29.89;18.81;101328.84;4417315;32;19972;-69
2022/05/29 07:29:48;;;;;;;;;;;;;;;30.51;18.29;101312.41;4418272;32;19993;-70
2022/05/29 07:32:14;;;;;;;;;;;;;;;30.80;18.06;101314.84;4412996;32;20314;-70
2022/05/29 07:34:43;;;;;;;;;;;;;;;30.93;17.81;101319.84;4417985;32;19986;-70
2022/05/29 07:37:11;;;;;;;;;;;;;;;30.61;17.99;101319.28;4418728;32;19998;-70
2022/05/29 07:39:39;;;;;;;;;;;;;;;31.31;17.41;101311.44;4414896;32;19971;-69
2022/05/29 07:44:52;;;;;;;;;;;;;;;30.51;17.51;101321.91;4414722;32;20474;-70
2022/05/29 07:47:18;;;;;;;;;;;;;;;30.44;17.79;101319.69;4397979;32;19997;-70
2022/05/29 07:49:44;;;;;;;;;;;;;;;31.09;17.32;101306.97;4415259;32;19957;-69
2022/05/29 07:52:09;;;;;;;;;;;;;;;31.77;16.78;101314.06;4415222;32;20104;-69
2022/05/29 07:54:36;;;;;;;;;;;;;;;31.58;16.99;101312.78;4414279;32;19998;-68
2022/05/29 07:57:01;;;;;;;;;;;;;;;31.72;16.90;101312.09;4414549;32;20359;-69
2022/05/29 07:59:27;;;;;;;;;;;;;;;31.81;16.90;101305.75;4412733;32;19972;-69
2022/05/29 08:01:52;;;;;;;;;;;;;;;31.63;17.06;101306.78;4416970;32;19962;-68
2022/05/29 08:04:18;;;;;;;;;;;;;;;31.53;17.05;101299.94;4416102;32;20011;-69
2022/05/29 08:06:44;;;;;;;;;;;;;;;31.68;16.84;101299.25;4415667;32;19957;-69
2022/05/29 08:09:10;;;;;;;;;;;;;;;31.46;17.14;101294.87;4416216;32;20347;-69
2022/05/29 08:11:35;;;;;;;;;;;;;;;31.35;17.16;101297.31;4418268;32;20383;-69
2022/05/29 08:14:01;;;;;;;;;;;;;;;31.94;16.74;101302.72;4417695;32;20568;-69
2022/05/29 08:16:27;;;;;;;;;;;;;;;31.91;16.42;101303.09;4416245;32;19969;-69
2022/05/29 08:18:53;;;;;;;;;;;;;;;31.99;15.86;101295.94;4423406;32;20673;-69
2022/05/29 08:21:19;;;;;;;;;;;;;;;32.44;15.43;101290.31;4418570;32;20024;-70
2022/05/29 08:30:37;;;;;;;;;;;;;;;32.75;15.44;101291.13;4418352;32;20439;-69
2022/05/29 08:32:01;;;;;;;;;;;;;;;33.64;15.14;101297.53;4417406;32;20479;-69
2022/05/29 08:34:27;;;;;;;;;;;;;;;33.82;15.18;101305.84;4419923;32;19966;-69
2022/05/29 08:36:54;;;;;;;;;;;;;;;33.94;15.04;101297.47;4418517;32;19976;-69
2022/05/29 08:39:19;;;;;;;;;;;;;;;33.44;15.10;101298.56;4417828;32;19976;-69
2022/05/29 08:41:50;;;;;;;;;;;;;;;33.46;15.13;101298.72;4418505;32;19997;-69
2022/05/29 08:44:17;;;;;;;;;;;;;;;33.32;15.12;101291.53;4418718;32;21020;-69
2022/05/29 08:46:49;;;;;;;;;;;;;;;32.89;15.39;101283.00;4417628;32;19957;-69
2022/05/29 08:49:17;;;;;;;;;;;;;;;33.46;15.07;101290.75;4421201;32;19967;-69
2022/05/29 08:54:25;;;;;;;;;;;;;;;34.67;14.02;101291.06;3948744;32;15823410;-70
2022/05/29 09:02:19;;;;;;;;;;;;;;;35.50;13.70;101276.50;3951813;32;15726546;-70
2022/05/29 09:04:50;;;;;;;;;;;;;;;35.50;13.70;101276.50;4431211;32;19994;-70
2022/05/29 09:07:18;;;;;;;;;;;;;;;36.22;12.93;101278.19;4432136;32;19989;-70
2022/05/29 09:09:48;;;;;;;;;;;;;;;36.48;12.88;101272.34;4433162;32;19985;-70
2022/05/29 09:12:17;;;;;;;;;;;;;;;37.05;12.35;101280.63;4428430;32;19960;-69
2022/05/29 09:14:51;;;;;;;;;;;;;;;37.25;11.92;101279.31;4427347;32;20378;-70
2022/05/29 09:27:38;;;;;;;;;;;;;;;36.17;12.98;101274.16;3952337;32;15723527;-70
2022/05/29 09:30:05;;;;;;;;;;;;;;;36.17;12.98;101274.16;4438433;32;20350;-70
2022/05/29 09:32:32;;;;;;;;;;;;;;;35.86;13.06;101264.97;4431181;32;20715;-70
2022/05/29 09:40:24;;;;;;;;;;;;;;;36.06;13.04;101268.81;3954825;32;15723590;-70
2022/05/29 09:42:53;;;;;;;;;;;;;;;36.06;13.04;101268.81;4435289;32;19961;-70
2022/05/29 09:50:57;;;;;;;;;;;;;;;34.63;14.23;101258.50;4443861;32;20305;-70
2022/05/29 09:53:42;;;;;;;;;;;;;;;33.59;14.83;101249.66;4439433;32;19978;-70
2022/05/29 09:56:09;;;;;;;;;;;;;;;34.49;14.28;101253.56;4443419;32;20360;-70
2022/05/29 09:58:40;;;;;;;;;;;;;;;34.17;14.64;101255.09;4444238;32;20025;-69
2022/05/29 10:01:06;;;;;;;;;;;;;;;34.01;14.80;101252.81;4444955;32;20004;-70
2022/05/29 10:03:34;;;;;;;;;;;;;;;34.10;14.56;101249.28;4440002;32;19960;-70
2022/05/29 10:06:07;;;;;;;;;;;;;;;34.36;14.31;101251.69;4441190;32;20227;-69
2022/05/29 10:08:33;;;;;;;;;;;;;;;34.39;14.38;101254.19;4444753;32;20630;-70
2022/05/29 10:11:19;;;;;;;;;;;;;;;34.41;14.38;101247.75;4446876;32;20011;-68
2022/05/29 10:13:45;;;;;;;;;;;;;;;34.61;14.02;101237.88;4441474;32;20024;-69
2022/05/29 10:16:11;;;;;;;;;;;;;;;34.92;13.72;101242.12;4439866;32;20249;-69
2022/05/29 10:18:38;;;;;;;;;;;;;;;35.13;13.75;101245.44;4444012;32;20029;-69
2022/05/29 10:21:06;;;;;;;;;;;;;;;35.44;13.64;101243.78;4444559;32;20417;-69
2022/05/29 10:23:34;;;;;;;;;;;;;;;35.40;13.54;101240.50;4440380;32;19975;-69
2022/05/29 10:26:04;;;;;;;;;;;;;;;35.85;13.11;101245.06;4443564;32;20001;-69
2022/05/29 10:28:34;;;;;;;;;;;;;;;36.27;12.77;101230.22;4443668;32;19959;-69
2022/05/29 10:31:01;;;;;;;;;;;;;;;35.93;13.08;101236.97;4441853;32;20039;-69
2022/05/29 10:33:28;;;;;;;;;;;;;;;35.95;13.16;101240.03;4440617;32;19993;-69
2022/05/29 10:35:56;;;;;;;;;;;;;;;36.29;12.89;101240.00;4443354;32;20025;-69
2022/05/29 10:38:25;;;;;;;;;;;;;;;35.70;13.29;101240.13;4441508;32;19949;-69
2022/05/29 10:40:53;;;;;;;;;;;;;;;35.61;13.36;101237.13;4442136;32;20023;-69
2022/05/29 10:43:38;;;;;;;;;;;;;;;35.42;13.42;101231.09;4442011;32;19974;-69
2022/05/29 10:46:06;;;;;;;;;;;;;;;34.56;13.96;101235.97;4441099;32;20084;-69
2022/05/29 10:48:51;;;;;;;;;;;;;;;34.64;14.04;101233.75;4445394;32;19966;-69
2022/05/29 10:51:22;;;;;;;;;;;;;;;35.71;13.31;101229.97;4442124;32;19967;-69
2022/05/29 10:59:20;;;;;;;;;;;;;;;36.49;12.27;101224.03;3953908;32;15724546;-69
2022/05/29 11:05:00;;;;;;;;;;;;;;;35.26;12.74;101212.91;4430514;32;19957;-71
2022/05/29 11:10:15;;;;;;;;;;;;;;;36.51;12.14;101220.50;3952941;32;15730585;-70
2022/05/29 11:12:56;;;;;;;;;;;;;;;35.89;12.52;101201.47;4431482;32;20027;-70
2022/05/29 11:18:32;;;;;;;;;;;;;;;37.01;12.13;101204.00;3952857;32;15722595;-69
2022/05/29 11:31:43;;;;;;;;;;;;;;;40.33;9.89;101198.03;3959620;32;15723081;-70
2022/05/29 11:34:19;;;;;;;;;;;;;;;40.33;9.89;101198.03;4431843;32;19995;-70
2022/05/29 11:37:05;;;;;;;;;;;;;;;40.59;9.81;101193.06;4433316;32;20709;-70
2022/05/29 11:39:51;;;;;;;;;;;;;;;40.71;9.65;101197.56;4435430;32;20378;-70
2022/05/29 11:42:23;;;;;;;;;;;;;;;40.49;9.81;101189.47;4431724;32;20441;-70
2022/05/29 11:45:08;;;;;;;;;;;;;;;41.39;9.35;101193.00;4431882;32;20183;-70
2022/05/29 11:51:07;;;;;;;;;;;;;;;41.07;9.50;101187.31;3953586;32;15726576;-69
2022/05/29 11:53:10;;;;;;;;;;;;;;;41.07;9.50;101187.31;4426350;32;20339;-70
2022/05/29 11:55:40;;;;;;;;;;;;;;;40.16;9.75;101188.75;4424320;32;20320;-70
2022/05/29 11:58:17;;;;;;;;;;;;;;;41.18;9.39;101183.53;4428629;32;20181;-70
2022/05/29 12:00:47;;;;;;;;;;;;;;;39.66;10.31;101181.03;4428900;32;20317;-70
2022/05/29 12:03:32;;;;;;;;;;;;;;;40.14;10.33;101177.59;4426539;32;20366;-70
2022/05/29 12:06:05;;;;;;;;;;;;;;;39.77;10.48;101181.69;4427646;32;19957;-70
2022/05/29 12:11:41;;;;;;;;;;;;;;;39.33;10.99;101170.62;3953409;32;15724547;-69
2022/05/29 12:16:53;;;;;;;;;;;;;;;39.81;10.81;101173.16;3952373;32;15724358;-70
2022/05/29 12:19:22;;;;;;;;;;;;;;;39.81;10.81;101173.16;4431961;32;20034;-70
2022/05/29 12:21:53;;;;;;;;;;;;;;;40.13;10.34;101161.31;4430364;32;19993;-70
2022/05/29 12:24:28;;;;;;;;;;;;;;;41.07;9.74;101158.53;4427122;32;19969;-70
2022/05/29 12:29:34;;;;;;;;;;;;;;;40.31;10.27;101153.69;3954276;32;15722310;-70
2022/05/29 12:32:02;;;;;;;;;;;;;;;40.31;10.27;101153.69;4429474;32;20432;-70
2022/05/29 12:34:31;;;;;;;;;;;;;;;39.32;10.84;101149.22;4429133;32;20352;-70
2022/05/29 12:37:05;;;;;;;;;;;;;;;38.62;11.48;101149.41;4431368;32;19957;-69
2022/05/29 12:45:09;;;;;;;;;;;;;;;38.04;13.07;101136.28;3953801;32;15724447;-70
2022/05/29 12:47:51;;;;;;;;;;;;;;;38.04;13.07;101136.28;4435476;32;19962;-70
2022/05/29 12:50:24;;;;;;;;;;;;;;;37.17;12.82;101126.78;4435014;32;20248;-70
2022/05/29 12:53:09;;;;;;;;;;;;;;;36.11;13.24;101139.59;4433631;32;20018;-70
2022/05/29 12:58:37;;;;;;;;;;;;;;;35.50;13.70;101123.47;3953114;32;15724621;-70
2022/05/29 13:01:09;;;;;;;;;;;;;;;35.50;13.70;101123.47;4434244;32;19961;-70
2022/05/29 13:03:45;;;;;;;;;;;;;;;36.60;12.82;101120.06;4433363;32;20263;-70
2022/05/29 13:06:30;;;;;;;;;;;;;;;38.21;11.94;101127.28;4433377;32;19961;-70
2022/05/29 13:11:36;;;;;;;;;;;;;;;39.79;10.30;101117.00;3973859;31;15720771;-70
2022/05/29 13:14:04;;;;;;;;;;;;;;;39.79;10.30;101117.00;4455621;32;20000;-70
2022/05/29 13:16:33;;;;;;;;;;;;;;;38.90;11.00;101121.97;4453319;32;19967;-70
2022/05/29 13:21:51;;;;;;;;;;;;;;;37.25;12.83;101123.72;3941616;32;15724152;-70
2022/05/29 13:24:17;;;;;;;;;;;;;;;37.25;12.83;101123.72;4418212;32;20436;-70
2022/05/29 13:26:43;;;;;;;;;;;;;;;36.80;12.89;101116.56;4421038;32;19954;-70
2022/05/29 13:29:29;;;;;;;;;;;;;;;36.49;13.05;101103.81;4417256;32;20421;-70
2022/05/29 13:32:14;;;;;;;;;;;;;;;36.28;13.12;101111.63;4415916;32;20461;-70
2022/05/29 13:35:00;;;;;;;;;;;;;;;37.33;12.20;101119.25;4417945;32;19958;-70
2022/05/29 13:40:10;;;;;;;;;;;;;;;41.58;9.56;101106.19;3951976;32;15724544;-69
2022/05/29 13:45:33;;;;;;;;;;;;;;;42.28;9.14;101100.59;3961608;31;15717343;-70
2022/05/29 13:53:23;;;;;;;;;;;;;;;42.58;8.63;101103.03;3965716;31;15715985;-70
2022/05/29 13:56:11;;;;;;;;;;;;;;;42.58;8.63;101103.03;4444314;32;19975;-70
2022/05/29 14:04:21;;;;;;;;;;;;;;;48.21;6.79;101110.94;3952940;32;15722577;-71
2022/05/29 14:07:07;;;;;;;;;;;;;;;48.21;6.79;101110.94;4426440;32;19991;-70
2022/05/29 14:12:28;;;;;;;;;;;;;;;45.11;7.71;101091.06;3952239;32;15723784;-69
2022/05/29 14:14:55;;;;;;;;;;;;;;;45.11;7.71;101091.06;4425243;32;19957;-70
2022/05/29 14:20:15;;;;;;;;;;;;;;;47.27;6.46;101101.87;3963823;31;15717500;-69
2022/05/29 14:25:36;;;;;;;;;;;;;;;49.13;5.97;101098.72;3952097;32;15722603;-70
2022/05/29 14:36:17;;;;;;;;;;;;;;;49.67;5.57;101097.16;3973138;31;15717231;-70
2022/05/29 14:41:41;;;;;;;;;;;;;;;49.26;5.84;101093.81;3973456;31;15717503;-70
2022/05/29 14:44:09;;;;;;;;;;;;;;;49.26;5.84;101093.81;4456282;32;21087;-70
2022/05/29 14:49:53;;;;;;;;;;;;;;;45.55;7.47;101093.72;3954278;32;15725527;-69
2022/05/29 14:52:39;;;;;;;;;;;;;;;45.55;7.47;101093.72;4431956;32;19981;-70
2022/05/29 14:55:10;;;;;;;;;;;;;;;42.31;8.90;101082.31;4427616;32;20001;-70
2022/05/29 14:57:44;;;;;;;;;;;;;;;42.13;9.10;101084.25;4431768;32;19953;-70
2022/05/29 15:00:29;;;;;;;;;;;;;;;42.12;9.15;101087.87;4429346;32;20034;-70
2022/05/29 15:02:57;;;;;;;;;;;;;;;42.12;9.08;101081.94;4429657;32;20432;-70
2022/05/29 15:05:23;;;;;;;;;;;;;;;41.37;9.61;101073.91;4431026;32;20295;-70
2022/05/29 15:10:40;;;;;;;;;;;;;;;40.52;10.10;101067.97;4431207;32;19999;-70
2022/05/29 15:13:09;;;;;;;;;;;;;;;40.99;9.93;101066.47;4429342;32;20432;-70
2022/05/29 15:15:43;;;;;;;;;;;;;;;41.01;9.76;101057.72;4432824;32;20397;-70
2022/05/29 15:18:12;;;;;;;;;;;;;;;40.94;9.43;101060.97;4427822;32;20508;-70
2022/05/29 15:24:28;;;;;;;;;;;;;;;39.37;10.55;101059.75;4431586;32;20332;-70
2022/05/29 15:26:46;;;;;;;;;;;;;;;40.25;10.07;101053.00;4428379;32;19993;-70
2022/05/29 15:29:18;;;;;;;;;;;;;;;41.21;9.51;101049.31;4430985;32;19945;-70
2022/05/29 15:31:47;;;;;;;;;;;;;;;40.60;9.82;101044.88;4430058;32;19997;-70
2022/05/29 15:36:57;;;;;;;;;;;;;;;41.34;9.50;101049.38;3952395;32;15722581;-70
2022/05/29 15:42:05;;;;;;;;;;;;;;;42.16;9.55;101043.72;3947159;32;15722592;-70
2022/05/29 15:47:31;;;;;;;;;;;;;;;41.82;10.07;101044.72;3955656;31;15716816;-70